sensor_id;sensor_type;location;lat;lon;timestamp;P1;durP1;ratioP1;P2;durP2;ratioP2
29500;SDS011;16450;50.288;10.966;2022-07-04T00:02:20;2.13;;;1.47;;
29500;SDS011;16450;50.288;10.966;2022-07-04T00:05:21;1.87;;;1.33;;
29500;SDS011;16450;50.288;10.966;2022-07-04T00:08:22;2.20;;;1.60;;
29500;SDS011;16450;50.288;10.966;2022-07-04T00:11:22;1.73;;;1.63;;
29500;SDS011;16450;50.288;10.966;2022-07-04T00:14:23;1.87;;;1.50;;
29500;SDS011;16450;50.288;10.966;2022-07-04T00:17:23;1.43;;;1.33;;
29500;SDS011;16450;50.288;10.966;2022-07-04T00:20:24;2.57;;;1.90;;
29500;SDS011;16450;50.288;10.966;2022-07-04T00:23:25;3.93;;;1.57;;
29500;SDS011;16450;50.288;10.966;2022-07-04T00:26:26;2.23;;;1.60;;
29500;SDS011;16450;50.288;10.966;2022-07-04T00:29:27;2.77;;;1.93;;
29500;SDS011;16450;50.288;10.966;2022-07-04T00:32:29;3.00;;;2.00;;
29500;SDS011;16450;50.288;10.966;2022-07-04T00:35:29;5.77;;;2.20;;
29500;SDS011;16450;50.288;10.966;2022-07-04T00:38:30;3.17;;;2.20;;
29500;SDS011;16450;50.288;10.966;2022-07-04T00:41:31;2.67;;;2.10;;
29500;SDS011;16450;50.288;10.966;2022-07-04T00:44:32;4.73;;;2.07;;
29500;SDS011;16450;50.288;10.966;2022-07-04T00:47:36;4.23;;;2.10;;
29500;SDS011;16450;50.288;10.966;2022-07-04T00:50:37;2.67;;;1.70;;
29500;SDS011;16450;50.288;10.966;2022-07-04T00:53:39;2.67;;;2.00;;
29500;SDS011;16450;50.288;10.966;2022-07-04T00:56:40;1.87;;;1.60;;
29500;SDS011;16450;50.288;10.966;2022-07-04T00:59:41;2.20;;;1.60;;
29500;SDS011;16450;50.288;10.966;2022-07-04T01:02:42;5.17;;;1.73;;
29500;SDS011;16450;50.288;10.966;2022-07-04T01:05:43;2.90;;;1.63;;
29500;SDS011;16450;50.288;10.966;2022-07-04T01:08:45;3.30;;;1.60;;
29500;SDS011;16450;50.288;10.966;2022-07-04T01:11:48;3.43;;;1.77;;
29500;SDS011;16450;50.288;10.966;2022-07-04T01:14:50;1.97;;;1.80;;
29500;SDS011;16450;50.288;10.966;2022-07-04T01:17:51;2.13;;;1.80;;
29500;SDS011;16450;50.288;10.966;2022-07-04T01:20:51;1.80;;;1.70;;
29500;SDS011;16450;50.288;10.966;2022-07-04T01:23:52;2.10;;;1.80;;
29500;SDS011;16450;50.288;10.966;2022-07-04T01:26:53;2.93;;;1.80;;
29500;SDS011;16450;50.288;10.966;2022-07-04T01:29:53;4.20;;;1.70;;
29500;SDS011;16450;50.288;10.966;2022-07-04T01:32:54;1.80;;;1.70;;
29500;SDS011;16450;50.288;10.966;2022-07-04T01:35:54;3.00;;;1.80;;
29500;SDS011;16450;50.288;10.966;2022-07-04T01:38:55;2.00;;;1.90;;
29500;SDS011;16450;50.288;10.966;2022-07-04T01:41:56;2.23;;;1.83;;
29500;SDS011;16450;50.288;10.966;2022-07-04T01:44:56;2.83;;;1.80;;
29500;SDS011;16450;50.288;10.966;2022-07-04T01:47:57;3.10;;;2.00;;
29500;SDS011;16450;50.288;10.966;2022-07-04T01:50:58;1.80;;;1.70;;
29500;SDS011;16450;50.288;10.966;2022-07-04T01:53:58;2.10;;;1.90;;
29500;SDS011;16450;50.288;10.966;2022-07-04T01:56:59;1.87;;;1.77;;
29500;SDS011;16450;50.288;10.966;2022-07-04T01:59:59;2.87;;;1.83;;
29500;SDS011;16450;50.288;10.966;2022-07-04T02:03:18;3.37;;;1.67;;
29500;SDS011;16450;50.288;10.966;2022-07-04T02:06:19;1.80;;;1.63;;
29500;SDS011;16450;50.288;10.966;2022-07-04T02:09:20;3.30;;;2.10;;
29500;SDS011;16450;50.288;10.966;2022-07-04T02:12:21;2.23;;;1.90;;
29500;SDS011;16450;50.288;10.966;2022-07-04T02:15:40;2.90;;;1.67;;
29500;SDS011;16450;50.288;10.966;2022-07-04T02:18:41;1.60;;;1.50;;
29500;SDS011;16450;50.288;10.966;2022-07-04T02:21:42;2.50;;;2.00;;
29500;SDS011;16450;50.288;10.966;2022-07-04T02:24:43;2.10;;;1.90;;
29500;SDS011;16450;50.288;10.966;2022-07-04T02:27:44;2.07;;;1.87;;
29500;SDS011;16450;50.288;10.966;2022-07-04T02:30:45;1.93;;;1.83;;
29500;SDS011;16450;50.288;10.966;2022-07-04T02:33:46;1.70;;;1.60;;
29500;SDS011;16450;50.288;10.966;2022-07-04T02:36:47;2.30;;;1.93;;
29500;SDS011;16450;50.288;10.966;2022-07-04T02:39:47;3.10;;;1.77;;
29500;SDS011;16450;50.288;10.966;2022-07-04T02:42:48;2.87;;;1.83;;
29500;SDS011;16450;50.288;10.966;2022-07-04T02:45:49;1.97;;;1.70;;
29500;SDS011;16450;50.288;10.966;2022-07-04T02:48:50;1.90;;;1.70;;
29500;SDS011;16450;50.288;10.966;2022-07-04T02:51:50;2.20;;;2.00;;
29500;SDS011;16450;50.288;10.966;2022-07-04T02:54:52;3.60;;;2.07;;
29500;SDS011;16450;50.288;10.966;2022-07-04T02:57:53;2.10;;;1.90;;
29500;SDS011;16450;50.288;10.966;2022-07-04T03:00:54;2.40;;;2.00;;
29500;SDS011;16450;50.288;10.966;2022-07-04T03:03:54;5.17;;;2.13;;
29500;SDS011;16450;50.288;10.966;2022-07-04T03:06:55;2.23;;;1.80;;
29500;SDS011;16450;50.288;10.966;2022-07-04T03:09:56;2.57;;;2.10;;
29500;SDS011;16450;50.288;10.966;2022-07-04T03:12:56;3.33;;;2.20;;
29500;SDS011;16450;50.288;10.966;2022-07-04T03:15:57;3.03;;;2.20;;
29500;SDS011;16450;50.288;10.966;2022-07-04T03:18:58;2.10;;;1.90;;
29500;SDS011;16450;50.288;10.966;2022-07-04T03:21:58;3.57;;;2.07;;
29500;SDS011;16450;50.288;10.966;2022-07-04T03:24:59;3.80;;;2.30;;
29500;SDS011;16450;50.288;10.966;2022-07-04T03:28:01;4.13;;;2.33;;
29500;SDS011;16450;50.288;10.966;2022-07-04T03:31:01;2.70;;;2.10;;
29500;SDS011;16450;50.288;10.966;2022-07-04T03:34:02;3.13;;;2.23;;
29500;SDS011;16450;50.288;10.966;2022-07-04T03:37:03;2.23;;;2.03;;
29500;SDS011;16450;50.288;10.966;2022-07-04T03:40:05;3.20;;;2.30;;
29500;SDS011;16450;50.288;10.966;2022-07-04T03:43:06;3.50;;;2.60;;
29500;SDS011;16450;50.288;10.966;2022-07-04T03:46:07;5.03;;;2.60;;
29500;SDS011;16450;50.288;10.966;2022-07-04T03:49:07;2.40;;;2.20;;
29500;SDS011;16450;50.288;10.966;2022-07-04T03:52:08;2.83;;;2.43;;
29500;SDS011;16450;50.288;10.966;2022-07-04T03:55:09;4.77;;;2.63;;
29500;SDS011;16450;50.288;10.966;2022-07-04T03:58:10;3.40;;;2.40;;
29500;SDS011;16450;50.288;10.966;2022-07-04T04:01:11;3.47;;;2.40;;
29500;SDS011;16450;50.288;10.966;2022-07-04T04:04:11;3.17;;;2.40;;
29500;SDS011;16450;50.288;10.966;2022-07-04T04:07:31;8.70;;;2.20;;
29500;SDS011;16450;50.288;10.966;2022-07-04T04:10:32;2.37;;;2.17;;
29500;SDS011;16450;50.288;10.966;2022-07-04T04:13:32;3.00;;;2.50;;
29500;SDS011;16450;50.288;10.966;2022-07-04T04:16:33;2.63;;;2.20;;
29500;SDS011;16450;50.288;10.966;2022-07-04T04:19:35;3.70;;;2.30;;
29500;SDS011;16450;50.288;10.966;2022-07-04T04:22:35;4.83;;;2.20;;
29500;SDS011;16450;50.288;10.966;2022-07-04T04:25:36;2.53;;;2.33;;
29500;SDS011;16450;50.288;10.966;2022-07-04T04:28:37;3.53;;;2.40;;
29500;SDS011;16450;50.288;10.966;2022-07-04T04:31:38;3.97;;;2.30;;
29500;SDS011;16450;50.288;10.966;2022-07-04T04:34:38;3.00;;;2.40;;
29500;SDS011;16450;50.288;10.966;2022-07-04T04:37:39;3.70;;;2.30;;
29500;SDS011;16450;50.288;10.966;2022-07-04T04:40:40;2.60;;;2.40;;
29500;SDS011;16450;50.288;10.966;2022-07-04T04:43:41;2.40;;;2.20;;
29500;SDS011;16450;50.288;10.966;2022-07-04T04:46:42;2.77;;;2.40;;
29500;SDS011;16450;50.288;10.966;2022-07-04T04:49:42;3.27;;;2.43;;
29500;SDS011;16450;50.288;10.966;2022-07-04T04:52:43;3.27;;;2.60;;
29500;SDS011;16450;50.288;10.966;2022-07-04T04:55:44;2.47;;;2.27;;
29500;SDS011;16450;50.288;10.966;2022-07-04T04:58:44;2.93;;;2.30;;
29500;SDS011;16450;50.288;10.966;2022-07-04T05:01:45;3.83;;;2.27;;
29500;SDS011;16450;50.288;10.966;2022-07-04T05:04:46;2.33;;;2.10;;
29500;SDS011;16450;50.288;10.966;2022-07-04T05:07:47;2.83;;;2.30;;
29500;SDS011;16450;50.288;10.966;2022-07-04T05:10:47;7.00;;;2.30;;
29500;SDS011;16450;50.288;10.966;2022-07-04T05:13:48;4.05;;;2.08;;
29500;SDS011;16450;50.288;10.966;2022-07-04T05:16:49;2.33;;;1.92;;
29500;SDS011;16450;50.288;10.966;2022-07-04T05:19:49;1.75;;;1.55;;
29500;SDS011;16450;50.288;10.966;2022-07-04T05:22:50;2.80;;;1.75;;
29500;SDS011;16450;50.288;10.966;2022-07-04T05:25:52;1.90;;;1.70;;
29500;SDS011;16450;50.288;10.966;2022-07-04T05:28:52;2.47;;;1.65;;
29500;SDS011;16450;50.288;10.966;2022-07-04T05:31:55;4.28;;;1.52;;
29500;SDS011;16450;50.288;10.966;2022-07-04T05:34:56;2.35;;;1.30;;
29500;SDS011;16450;50.288;10.966;2022-07-04T05:37:56;2.00;;;1.40;;
29500;SDS011;16450;50.288;10.966;2022-07-04T05:40:57;1.98;;;1.70;;
29500;SDS011;16450;50.288;10.966;2022-07-04T05:43:58;2.22;;;1.35;;
29500;SDS011;16450;50.288;10.966;2022-07-04T05:46:59;2.72;;;1.60;;
29500;SDS011;16450;50.288;10.966;2022-07-04T05:49:59;3.33;;;1.23;;
29500;SDS011;16450;50.288;10.966;2022-07-04T05:53:01;1.90;;;1.30;;
29500;SDS011;16450;50.288;10.966;2022-07-04T05:56:02;1.70;;;1.25;;
29500;SDS011;16450;50.288;10.966;2022-07-04T05:59:02;2.85;;;1.23;;
29500;SDS011;16450;50.288;10.966;2022-07-04T06:02:03;1.20;;;1.00;;
29500;SDS011;16450;50.288;10.966;2022-07-04T06:05:04;1.35;;;1.10;;
29500;SDS011;16450;50.288;10.966;2022-07-04T06:08:05;2.45;;;1.20;;
29500;SDS011;16450;50.288;10.966;2022-07-04T06:11:05;4.03;;;1.23;;
29500;SDS011;16450;50.288;10.966;2022-07-04T06:14:06;1.45;;;1.05;;
29500;SDS011;16450;50.288;10.966;2022-07-04T06:17:07;3.70;;;1.40;;
29500;SDS011;16450;50.288;10.966;2022-07-04T06:20:07;4.65;;;1.27;;
29500;SDS011;16450;50.288;10.966;2022-07-04T06:23:09;2.60;;;1.30;;
29500;SDS011;16450;50.288;10.966;2022-07-04T06:26:10;2.65;;;1.10;;
29500;SDS011;16450;50.288;10.966;2022-07-04T06:29:10;3.88;;;1.20;;
29500;SDS011;16450;50.288;10.966;2022-07-04T06:32:12;1.70;;;1.30;;
29500;SDS011;16450;50.288;10.966;2022-07-04T06:35:13;1.30;;;1.20;;
29500;SDS011;16450;50.288;10.966;2022-07-04T06:38:33;1.90;;;1.10;;
29500;SDS011;16450;50.288;10.966;2022-07-04T06:41:33;4.57;;;1.13;;
29500;SDS011;16450;50.288;10.966;2022-07-04T06:44:34;4.68;;;1.40;;
29500;SDS011;16450;50.288;10.966;2022-07-04T06:47:35;2.20;;;1.35;;
29500;SDS011;16450;50.288;10.966;2022-07-04T06:50:35;5.10;;;1.38;;
29500;SDS011;16450;50.288;10.966;2022-07-04T06:53:36;2.17;;;1.13;;
29500;SDS011;16450;50.288;10.966;2022-07-04T06:56:37;2.40;;;1.40;;
29500;SDS011;16450;50.288;10.966;2022-07-04T06:59:37;2.22;;;1.23;;
29500;SDS011;16450;50.288;10.966;2022-07-04T07:02:38;1.45;;;1.10;;
29500;SDS011;16450;50.288;10.966;2022-07-04T07:05:38;3.40;;;1.42;;
29500;SDS011;16450;50.288;10.966;2022-07-04T07:08:39;0.85;;;0.85;;
29500;SDS011;16450;50.288;10.966;2022-07-04T07:11:40;2.17;;;1.20;;
29500;SDS011;16450;50.288;10.966;2022-07-04T07:14:40;1.90;;;1.20;;
29500;SDS011;16450;50.288;10.966;2022-07-04T07:17:41;4.93;;;1.30;;
29500;SDS011;16450;50.288;10.966;2022-07-04T07:20:42;2.13;;;1.30;;
29500;SDS011;16450;50.288;10.966;2022-07-04T07:23:42;4.95;;;1.30;;
29500;SDS011;16450;50.288;10.966;2022-07-04T07:26:43;2.70;;;1.48;;
29500;SDS011;16450;50.288;10.966;2022-07-04T07:29:43;1.75;;;1.20;;
29500;SDS011;16450;50.288;10.966;2022-07-04T07:32:44;1.83;;;1.30;;
29500;SDS011;16450;50.288;10.966;2022-07-04T07:35:45;4.05;;;1.17;;
29500;SDS011;16450;50.288;10.966;2022-07-04T07:38:46;2.40;;;1.20;;
29500;SDS011;16450;50.288;10.966;2022-07-04T07:41:47;1.42;;;1.20;;
29500;SDS011;16450;50.288;10.966;2022-07-04T07:44:48;1.60;;;1.30;;
29500;SDS011;16450;50.288;10.966;2022-07-04T07:47:48;3.03;;;1.27;;
29500;SDS011;16450;50.288;10.966;2022-07-04T07:50:49;3.65;;;1.50;;
29500;SDS011;16450;50.288;10.966;2022-07-04T07:53:50;2.90;;;1.33;;
29500;SDS011;16450;50.288;10.966;2022-07-04T07:56:50;3.08;;;1.38;;
29500;SDS011;16450;50.288;10.966;2022-07-04T07:59:51;3.30;;;1.40;;
29500;SDS011;16450;50.288;10.966;2022-07-04T08:02:52;3.05;;;1.60;;
29500;SDS011;16450;50.288;10.966;2022-07-04T08:06:12;2.00;;;1.27;;
29500;SDS011;16450;50.288;10.966;2022-07-04T08:09:13;2.15;;;1.40;;
29500;SDS011;16450;50.288;10.966;2022-07-04T08:12:14;2.42;;;1.40;;
29500;SDS011;16450;50.288;10.966;2022-07-04T08:15:15;2.08;;;1.40;;
29500;SDS011;16450;50.288;10.966;2022-07-04T08:18:16;3.33;;;1.50;;
29500;SDS011;16450;50.288;10.966;2022-07-04T08:21:18;2.15;;;1.70;;
29500;SDS011;16450;50.288;10.966;2022-07-04T08:24:18;5.05;;;1.60;;
29500;SDS011;16450;50.288;10.966;2022-07-04T08:27:20;2.33;;;1.40;;
29500;SDS011;16450;50.288;10.966;2022-07-04T08:30:22;2.95;;;1.42;;
29500;SDS011;16450;50.288;10.966;2022-07-04T08:33:23;18.92;;;1.67;;
29500;SDS011;16450;50.288;10.966;2022-07-04T08:36:24;2.80;;;1.77;;
29500;SDS011;16450;50.288;10.966;2022-07-04T08:39:25;9.05;;;1.90;;
29500;SDS011;16450;50.288;10.966;2022-07-04T08:42:25;3.25;;;1.70;;
29500;SDS011;16450;50.288;10.966;2022-07-04T08:45:34;3.50;;;1.60;;
29500;SDS011;16450;50.288;10.966;2022-07-04T08:48:37;6.18;;;2.13;;
29500;SDS011;16450;50.288;10.966;2022-07-04T08:51:52;3.15;;;1.92;;
29500;SDS011;16450;50.288;10.966;2022-07-04T08:54:55;3.53;;;1.67;;
29500;SDS011;16450;50.288;10.966;2022-07-04T08:58:15;3.05;;;1.85;;
29500;SDS011;16450;50.288;10.966;2022-07-04T09:01:31;3.03;;;1.70;;
29500;SDS011;16450;50.288;10.966;2022-07-04T09:04:33;2.85;;;1.80;;
29500;SDS011;16450;50.288;10.966;2022-07-04T09:07:35;3.35;;;1.70;;
29500;SDS011;16450;50.288;10.966;2022-07-04T09:10:36;2.67;;;1.60;;
29500;SDS011;16450;50.288;10.966;2022-07-04T09:13:38;5.78;;;1.63;;
29500;SDS011;16450;50.288;10.966;2022-07-04T09:16:39;1.80;;;1.50;;
29500;SDS011;16450;50.288;10.966;2022-07-04T09:19:39;2.25;;;1.67;;
29500;SDS011;16450;50.288;10.966;2022-07-04T09:22:40;3.75;;;1.58;;
29500;SDS011;16450;50.288;10.966;2022-07-04T09:25:41;3.15;;;1.67;;
29500;SDS011;16450;50.288;10.966;2022-07-04T09:28:43;2.25;;;1.40;;
29500;SDS011;16450;50.288;10.966;2022-07-04T09:31:56;1.77;;;1.55;;
29500;SDS011;16450;50.288;10.966;2022-07-04T09:34:57;3.00;;;1.48;;
29500;SDS011;16450;50.288;10.966;2022-07-04T09:37:59;2.15;;;1.40;;
29500;SDS011;16450;50.288;10.966;2022-07-04T09:41:04;2.17;;;1.35;;
29500;SDS011;16450;50.288;10.966;2022-07-04T09:44:24;1.73;;;1.38;;
29500;SDS011;16450;50.288;10.966;2022-07-04T09:47:44;1.98;;;1.40;;
29500;SDS011;16450;50.288;10.966;2022-07-04T09:50:46;3.05;;;1.30;;
29500;SDS011;16450;50.288;10.966;2022-07-04T09:53:48;3.53;;;1.67;;
29500;SDS011;16450;50.288;10.966;2022-07-04T09:56:49;3.72;;;1.50;;
29500;SDS011;16450;50.288;10.966;2022-07-04T09:59:53;2.55;;;1.70;;
29500;SDS011;16450;50.288;10.966;2022-07-04T10:02:56;1.60;;;1.50;;
29500;SDS011;16450;50.288;10.966;2022-07-04T10:06:15;1.80;;;1.27;;
29500;SDS011;16450;50.288;10.966;2022-07-04T10:09:18;2.58;;;1.40;;
29500;SDS011;16450;50.288;10.966;2022-07-04T10:12:26;2.58;;;1.40;;
29500;SDS011;16450;50.288;10.966;2022-07-04T10:15:28;2.63;;;1.08;;
29500;SDS011;16450;50.288;10.966;2022-07-04T10:18:29;2.17;;;1.00;;
29500;SDS011;16450;50.288;10.966;2022-07-04T10:21:29;1.45;;;0.90;;
29500;SDS011;16450;50.288;10.966;2022-07-04T10:24:31;2.47;;;1.00;;
29500;SDS011;16450;50.288;10.966;2022-07-04T10:27:31;1.80;;;1.15;;
29500;SDS011;16450;50.288;10.966;2022-07-04T10:30:34;1.17;;;1.08;;
29500;SDS011;16450;50.288;10.966;2022-07-04T10:33:36;2.53;;;0.90;;
29500;SDS011;16450;50.288;10.966;2022-07-04T10:36:37;3.42;;;0.95;;
29500;SDS011;16450;50.288;10.966;2022-07-04T10:39:38;1.08;;;0.80;;
29500;SDS011;16450;50.288;10.966;2022-07-04T10:42:40;1.63;;;1.10;;
29500;SDS011;16450;50.288;10.966;2022-07-04T10:45:41;2.17;;;0.90;;
29500;SDS011;16450;50.288;10.966;2022-07-04T10:54:50;1.55;;;0.90;;
29500;SDS011;16450;50.288;10.966;2022-07-04T10:57:51;1.25;;;0.80;;
29500;SDS011;16450;50.288;10.966;2022-07-04T11:01:11;1.35;;;0.88;;
29500;SDS011;16450;50.288;10.966;2022-07-04T11:04:12;3.13;;;0.95;;
29500;SDS011;16450;50.288;10.966;2022-07-04T11:07:12;1.35;;;0.60;;
29500;SDS011;16450;50.288;10.966;2022-07-04T11:13:20;3.53;;;1.00;;
29500;SDS011;16450;50.288;10.966;2022-07-04T11:16:21;1.13;;;0.90;;
29500;SDS011;16450;50.288;10.966;2022-07-04T11:19:22;5.10;;;1.13;;
29500;SDS011;16450;50.288;10.966;2022-07-04T11:22:23;7.35;;;1.52;;
29500;SDS011;16450;50.288;10.966;2022-07-04T11:25:24;5.97;;;1.15;;
29500;SDS011;16450;50.288;10.966;2022-07-04T11:31:38;1.52;;;0.70;;
29500;SDS011;16450;50.288;10.966;2022-07-04T11:34:44;1.20;;;0.70;;
29500;SDS011;16450;50.288;10.966;2022-07-04T11:37:46;1.63;;;0.85;;
29500;SDS011;16450;50.288;10.966;2022-07-04T11:40:56;1.20;;;0.65;;
29500;SDS011;16450;50.288;10.966;2022-07-04T11:44:17;0.50;;;0.50;;
29500;SDS011;16450;50.288;10.966;2022-07-04T11:47:42;4.38;;;0.70;;
29500;SDS011;16450;50.288;10.966;2022-07-04T11:50:44;1.27;;;0.90;;
29500;SDS011;16450;50.288;10.966;2022-07-04T11:53:44;0.63;;;0.60;;
29500;SDS011;16450;50.288;10.966;2022-07-04T11:56:45;1.00;;;0.80;;
29500;SDS011;16450;50.288;10.966;2022-07-04T11:59:52;1.60;;;0.90;;
29500;SDS011;16450;50.288;10.966;2022-07-04T12:03:12;0.75;;;0.60;;
29500;SDS011;16450;50.288;10.966;2022-07-04T12:06:12;1.27;;;0.70;;
29500;SDS011;16450;50.288;10.966;2022-07-04T12:09:14;1.95;;;0.80;;
29500;SDS011;16450;50.288;10.966;2022-07-04T12:12:18;0.95;;;0.68;;
29500;SDS011;16450;50.288;10.966;2022-07-04T12:15:19;1.15;;;0.82;;
29500;SDS011;16450;50.288;10.966;2022-07-04T12:18:22;3.00;;;0.60;;
29500;SDS011;16450;50.288;10.966;2022-07-04T12:21:23;3.83;;;0.70;;
29500;SDS011;16450;50.288;10.966;2022-07-04T12:24:25;1.88;;;0.70;;
29500;SDS011;16450;50.288;10.966;2022-07-04T12:27:28;2.22;;;0.70;;
29500;SDS011;16450;50.288;10.966;2022-07-04T12:30:32;1.30;;;0.73;;
29500;SDS011;16450;50.288;10.966;2022-07-04T12:33:40;1.77;;;0.93;;
29500;SDS011;16450;50.288;10.966;2022-07-04T12:36:56;7.20;;;1.17;;
29500;SDS011;16450;50.288;10.966;2022-07-04T12:39:58;1.23;;;0.90;;
29500;SDS011;16450;50.288;10.966;2022-07-04T12:43:07;0.60;;;0.50;;
29500;SDS011;16450;50.288;10.966;2022-07-04T12:46:08;2.17;;;0.70;;
29500;SDS011;16450;50.288;10.966;2022-07-04T12:49:13;1.02;;;0.70;;
29500;SDS011;16450;50.288;10.966;2022-07-04T12:52:17;1.30;;;0.70;;
29500;SDS011;16450;50.288;10.966;2022-07-04T12:55:19;3.53;;;1.08;;
29500;SDS011;16450;50.288;10.966;2022-07-04T12:58:20;2.35;;;0.60;;
29500;SDS011;16450;50.288;10.966;2022-07-04T13:01:20;2.35;;;0.77;;
29500;SDS011;16450;50.288;10.966;2022-07-04T13:04:21;0.80;;;0.80;;
29500;SDS011;16450;50.288;10.966;2022-07-04T13:07:23;1.70;;;0.80;;
29500;SDS011;16450;50.288;10.966;2022-07-04T13:10:24;1.00;;;0.73;;
29500;SDS011;16450;50.288;10.966;2022-07-04T13:13:24;2.70;;;0.98;;
29500;SDS011;16450;50.288;10.966;2022-07-04T13:16:25;1.20;;;0.60;;
29500;SDS011;16450;50.288;10.966;2022-07-04T13:19:26;1.20;;;0.70;;
29500;SDS011;16450;50.288;10.966;2022-07-04T13:22:26;5.75;;;1.00;;
29500;SDS011;16450;50.288;10.966;2022-07-04T13:25:27;0.68;;;0.68;;
29500;SDS011;16450;50.288;10.966;2022-07-04T13:28:27;2.00;;;0.75;;
29500;SDS011;16450;50.288;10.966;2022-07-04T13:31:28;0.60;;;0.60;;
29500;SDS011;16450;50.288;10.966;2022-07-04T13:34:29;0.63;;;0.60;;
29500;SDS011;16450;50.288;10.966;2022-07-04T13:37:30;2.47;;;0.68;;
29500;SDS011;16450;50.288;10.966;2022-07-04T13:40:31;2.78;;;1.00;;
29500;SDS011;16450;50.288;10.966;2022-07-04T13:43:31;3.13;;;0.80;;
29500;SDS011;16450;50.288;10.966;2022-07-04T13:46:32;1.10;;;0.80;;
29500;SDS011;16450;50.288;10.966;2022-07-04T13:49:35;3.38;;;0.80;;
29500;SDS011;16450;50.288;10.966;2022-07-04T13:52:35;1.05;;;0.80;;
29500;SDS011;16450;50.288;10.966;2022-07-04T13:55:37;3.25;;;0.88;;
29500;SDS011;16450;50.288;10.966;2022-07-04T13:58:38;0.98;;;0.75;;
29500;SDS011;16450;50.288;10.966;2022-07-04T14:01:39;1.67;;;0.70;;
29500;SDS011;16450;50.288;10.966;2022-07-04T14:04:39;1.20;;;0.73;;
29500;SDS011;16450;50.288;10.966;2022-07-04T14:07:41;0.70;;;0.60;;
29500;SDS011;16450;50.288;10.966;2022-07-04T14:10:42;4.18;;;0.90;;
29500;SDS011;16450;50.288;10.966;2022-07-04T14:13:43;2.38;;;0.80;;
29500;SDS011;16450;50.288;10.966;2022-07-04T14:16:43;2.88;;;0.65;;
29500;SDS011;16450;50.288;10.966;2022-07-04T14:19:44;0.80;;;0.70;;
29500;SDS011;16450;50.288;10.966;2022-07-04T14:22:44;4.80;;;1.00;;
29500;SDS011;16450;50.288;10.966;2022-07-04T14:25:45;1.95;;;1.02;;
29500;SDS011;16450;50.288;10.966;2022-07-04T14:28:46;1.60;;;0.85;;
29500;SDS011;16450;50.288;10.966;2022-07-04T14:31:47;0.77;;;0.77;;
29500;SDS011;16450;50.288;10.966;2022-07-04T14:34:48;2.13;;;0.90;;
29500;SDS011;16450;50.288;10.966;2022-07-04T14:37:49;1.75;;;0.70;;
29500;SDS011;16450;50.288;10.966;2022-07-04T14:40:55;2.80;;;1.00;;
29500;SDS011;16450;50.288;10.966;2022-07-04T14:43:56;3.85;;;1.00;;
29500;SDS011;16450;50.288;10.966;2022-07-04T14:46:56;0.70;;;0.70;;
29500;SDS011;16450;50.288;10.966;2022-07-04T14:49:57;2.15;;;0.80;;
29500;SDS011;16450;50.288;10.966;2022-07-04T14:52:57;0.85;;;0.60;;
29500;SDS011;16450;50.288;10.966;2022-07-04T14:55:58;1.05;;;0.80;;
29500;SDS011;16450;50.288;10.966;2022-07-04T14:58:59;1.42;;;0.80;;
29500;SDS011;16450;50.288;10.966;2022-07-04T15:02:00;1.75;;;1.00;;
29500;SDS011;16450;50.288;10.966;2022-07-04T15:05:00;1.55;;;0.82;;
29500;SDS011;16450;50.288;10.966;2022-07-04T15:08:01;1.55;;;0.70;;
29500;SDS011;16450;50.288;10.966;2022-07-04T15:11:02;3.70;;;0.70;;
29500;SDS011;16450;50.288;10.966;2022-07-04T15:14:02;0.70;;;0.70;;
29500;SDS011;16450;50.288;10.966;2022-07-04T15:17:03;4.50;;;1.00;;
29500;SDS011;16450;50.288;10.966;2022-07-04T15:20:04;5.10;;;0.90;;
29500;SDS011;16450;50.288;10.966;2022-07-04T15:23:24;1.08;;;0.70;;
29500;SDS011;16450;50.288;10.966;2022-07-04T15:26:44;5.60;;;0.80;;
29500;SDS011;16450;50.288;10.966;2022-07-04T15:29:46;0.93;;;0.88;;
29500;SDS011;16450;50.288;10.966;2022-07-04T15:32:46;2.40;;;1.05;;
29500;SDS011;16450;50.288;10.966;2022-07-04T15:35:47;2.05;;;0.50;;
29500;SDS011;16450;50.288;10.966;2022-07-04T15:41:49;1.13;;;0.63;;
29500;SDS011;16450;50.288;10.966;2022-07-04T15:44:49;1.52;;;0.65;;
29500;SDS011;16450;50.288;10.966;2022-07-04T15:47:50;5.15;;;0.90;;
29500;SDS011;16450;50.288;10.966;2022-07-04T15:50:51;1.02;;;0.65;;
29500;SDS011;16450;50.288;10.966;2022-07-04T15:53:51;0.70;;;0.60;;
29500;SDS011;16450;50.288;10.966;2022-07-04T15:56:53;1.75;;;0.60;;
29500;SDS011;16450;50.288;10.966;2022-07-04T15:59:54;1.48;;;0.70;;
29500;SDS011;16450;50.288;10.966;2022-07-04T16:02:55;2.70;;;0.70;;
29500;SDS011;16450;50.288;10.966;2022-07-04T16:05:55;0.88;;;0.47;;
29500;SDS011;16450;50.288;10.966;2022-07-04T16:08:56;2.58;;;0.90;;
29500;SDS011;16450;50.288;10.966;2022-07-04T16:11:57;1.70;;;0.70;;
29500;SDS011;16450;50.288;10.966;2022-07-04T16:14:58;3.50;;;0.93;;
29500;SDS011;16450;50.288;10.966;2022-07-04T16:17:59;2.20;;;0.90;;
29500;SDS011;16450;50.288;10.966;2022-07-04T16:21:00;4.07;;;0.73;;
29500;SDS011;16450;50.288;10.966;2022-07-04T16:24:00;1.63;;;0.70;;
29500;SDS011;16450;50.288;10.966;2022-07-04T16:27:01;2.80;;;0.63;;
29500;SDS011;16450;50.288;10.966;2022-07-04T16:30:03;8.32;;;1.17;;
29500;SDS011;16450;50.288;10.966;2022-07-04T16:33:04;5.22;;;0.88;;
29500;SDS011;16450;50.288;10.966;2022-07-04T16:36:05;3.20;;;1.00;;
29500;SDS011;16450;50.288;10.966;2022-07-04T16:39:06;3.30;;;0.75;;
29500;SDS011;16450;50.288;10.966;2022-07-04T16:42:07;3.53;;;1.00;;
29500;SDS011;16450;50.288;10.966;2022-07-04T16:45:08;3.22;;;0.80;;
29500;SDS011;16450;50.288;10.966;2022-07-04T16:48:08;2.30;;;0.85;;
29500;SDS011;16450;50.288;10.966;2022-07-04T16:51:09;1.48;;;0.63;;
29500;SDS011;16450;50.288;10.966;2022-07-04T16:54:10;3.10;;;0.65;;
29500;SDS011;16450;50.288;10.966;2022-07-04T16:57:11;0.45;;;0.40;;
29500;SDS011;16450;50.288;10.966;2022-07-04T17:00:11;0.60;;;0.60;;
29500;SDS011;16450;50.288;10.966;2022-07-04T17:03:12;0.70;;;0.60;;
29500;SDS011;16450;50.288;10.966;2022-07-04T17:06:13;1.48;;;0.70;;
29500;SDS011;16450;50.288;10.966;2022-07-04T17:09:14;1.00;;;0.47;;
29500;SDS011;16450;50.288;10.966;2022-07-04T17:12:14;0.65;;;0.50;;
29500;SDS011;16450;50.288;10.966;2022-07-04T17:15:15;0.68;;;0.68;;
29500;SDS011;16450;50.288;10.966;2022-07-04T17:18:16;2.60;;;0.70;;
29500;SDS011;16450;50.288;10.966;2022-07-04T17:21:16;0.63;;;0.50;;
29500;SDS011;16450;50.288;10.966;2022-07-04T17:24:17;0.68;;;0.47;;
29500;SDS011;16450;50.288;10.966;2022-07-04T17:27:17;2.85;;;0.55;;
29500;SDS011;16450;50.288;10.966;2022-07-04T17:30:18;1.05;;;0.50;;
29500;SDS011;16450;50.288;10.966;2022-07-04T17:33:19;0.80;;;0.60;;
29500;SDS011;16450;50.288;10.966;2022-07-04T17:36:19;1.52;;;0.60;;
29500;SDS011;16450;50.288;10.966;2022-07-04T17:39:20;0.60;;;0.60;;
29500;SDS011;16450;50.288;10.966;2022-07-04T17:42:21;1.08;;;0.55;;
29500;SDS011;16450;50.288;10.966;2022-07-04T17:45:21;2.15;;;0.40;;
29500;SDS011;16450;50.288;10.966;2022-07-04T17:48:22;1.45;;;0.70;;
29500;SDS011;16450;50.288;10.966;2022-07-04T17:51:23;1.05;;;0.50;;
29500;SDS011;16450;50.288;10.966;2022-07-04T17:54:24;0.70;;;0.40;;
29500;SDS011;16450;50.288;10.966;2022-07-04T17:57:24;1.15;;;0.50;;
29500;SDS011;16450;50.288;10.966;2022-07-04T18:00:25;1.40;;;0.70;;
29500;SDS011;16450;50.288;10.966;2022-07-04T18:03:26;2.58;;;0.60;;
29500;SDS011;16450;50.288;10.966;2022-07-04T18:06:26;1.38;;;0.65;;
29500;SDS011;16450;50.288;10.966;2022-07-04T18:09:27;10.32;;;0.73;;
29500;SDS011;16450;50.288;10.966;2022-07-04T18:12:28;4.20;;;0.60;;
29500;SDS011;16450;50.288;10.966;2022-07-04T18:15:28;1.33;;;0.40;;